Lake City, CO (81235)

1:28 PM MST on February 11, 2016 (GMT -0700)
Lake City Heights | | Change Station
CLOSE
Current Station
Personal Weather Station
Location: Lake City, CO
Elevation: 8858 ft
Nearby Weather Stations

Elev 8858 ft 38.02 °N, 107.31 °W | Updated 1 second ago

Clear
Clear
43.2 °F
Feels Like 39 °F
N
6.3
Wind Variable Wind from WSW
Gusts 6.3 mph

Today
High -- | Low -- °F
--% Chance of Precip.
Yesterday
High -- | Low -- °F
Precip. -- in
Pressure 30.43 in
Visibility 10.0 miles
Clouds Clear
Windchill 39 °F
Dew Point 5 °F
Humidity 20%
Rainfall 0.00 in
Snow Depth Not available.
7:04 AM 5:43 PM
Waxing Crescent, 14% visible
METAR KTEX 112015Z AUTO 28012G16KT 10SM CLR 10/M16 A3043 RMK AO2 T00951161
Pressure 30.43 in
Visibility 10.0 miles
Clouds Clear
Windchill 39 °F
Dew Point 5 °F
Humidity 20%
Rainfall 0.00 in
Snow Depth Not available.
7:04 AM 5:43 PM
Waxing Crescent, 14% visible
METAR KTEX 112015Z AUTO 28012G16KT 10SM CLR 10/M16 A3043 RMK AO2 T00951161

10-Day Weather Forecast

Almanac

Astronomy

Feb. 11, 2016 Rise Set
Actual Time
Civil Twilight
Nautical Twilight
Astronomical Twilight
Moon
Length of Visible Light
Length of Day
Tomorrow will be .
, % of the Moon is Illuminated

Today's Extremes

State Highs State Lows

Community

WunderPhotos

Upload Photos

1,892,148 photos uploaded!

WunderBlog® & News

Nearby

Air Quality

  Air Quality AQ Index Pollutant
Not available.

Snow Depth

Station Depth Elevation

Earthquake Activity

City Distance Mag. Time & Date
Minimum magnitude displayed is 2.5.

Coastal Water Temperatures

Place Temperature

Stations

Nearby Weather Stations

Station Location Temp. Windchill Dew Point Humidity Wind Precip. Elev Updated Type
                   

Watches & Warnings

There are currently no watches in effect.